createdAt,value
2023-04-27T00:01:13.199Z,98510.34
2023-04-27T00:06:15.124Z,98501.91
2023-04-27T00:11:17.192Z,98496.34
2023-04-27T00:16:19.301Z,98497.56
2023-04-27T00:21:21.640Z,98490.09
2023-04-27T00:26:23.969Z,98490.50
2023-04-27T00:31:28.301Z,98496.59
2023-04-27T00:36:35.137Z,98499.03
2023-04-27T00:41:39.723Z,98500.00
2023-04-27T00:46:41.655Z,98504.59
2023-04-27T00:51:43.532Z,98501.63
2023-04-27T00:56:48.330Z,98507.19
2023-04-27T01:01:50.849Z,98512.34
2023-04-27T01:06:54.753Z,98518.44
2023-04-27T01:11:59.246Z,98512.59
2023-04-27T01:17:02.752Z,98518.72
2023-04-27T01:22:04.783Z,98527.53
2023-04-27T01:27:06.797Z,98519.91
2023-04-27T01:32:08.716Z,98522.78
2023-04-27T01:37:11.125Z,98524.66
2023-04-27T01:42:12.980Z,98518.94
2023-04-27T01:47:18.243Z,98521.78
2023-04-27T01:52:20.478Z,98527.34
2023-04-27T01:57:22.530Z,98534.41
2023-04-27T02:02:24.708Z,98540.63
2023-04-27T02:07:27.439Z,98534.78
2023-04-27T02:12:31.310Z,98543.59
2023-04-27T02:17:35.153Z,98535.31
2023-04-27T02:22:37.775Z,98540.59
2023-04-27T02:27:41.633Z,98542.09
2023-04-27T02:32:44.305Z,98546.31
2023-04-27T02:37:46.706Z,98546.44
2023-04-27T02:42:51.153Z,98544.13
2023-04-27T02:47:53.298Z,98541.00
2023-04-27T02:52:55.617Z,98546.28
2023-04-27T02:57:57.808Z,98541.13
2023-04-27T03:02:59.906Z,98535.97
2023-04-27T03:08:01.975Z,98544.66
2023-04-27T03:13:04.169Z,98546.53
2023-04-27T03:18:06.651Z,98543.28
2023-04-27T03:23:09.329Z,98550.19
2023-04-27T03:28:11.430Z,98559.81
2023-04-27T03:33:14.575Z,98562.50
2023-04-27T03:38:16.610Z,98574.72
2023-04-27T03:43:20.334Z,98577.28
2023-04-27T03:48:22.676Z,98584.22
2023-04-27T03:53:27.266Z,98580.81
2023-04-27T03:58:29.633Z,98581.88
2023-04-27T04:03:48.497Z,98584.59
2023-04-27T04:08:50.695Z,98590.56
2023-04-27T04:13:53.203Z,98595.59
2023-04-27T04:18:55.269Z,98598.16
2023-04-27T04:23:57.800Z,98595.72
2023-04-27T04:29:00.140Z,98601.56
2023-04-27T04:34:02.482Z,98604.81
2023-04-27T04:39:05.488Z,98604.69
2023-04-27T04:44:08.134Z,98608.91
2023-04-27T04:49:10.142Z,98615.31
2023-04-27T04:54:12.905Z,98612.22
2023-04-27T04:59:14.937Z,98613.34
2023-04-27T05:04:18.877Z,98628.88
2023-04-27T05:09:21.112Z,98622.69
2023-04-27T05:14:22.957Z,98630.31
2023-04-27T05:19:25.519Z,98630.06
2023-04-27T05:24:27.778Z,98627.91
2023-04-27T05:29:30.050Z,98619.78
2023-04-27T05:34:31.892Z,98622.38
2023-04-27T05:39:33.847Z,98629.06
2023-04-27T05:44:35.918Z,98623.91
2023-04-27T05:49:37.865Z,98632.38
2023-04-27T05:54:39.798Z,98621.38
2023-04-27T05:59:42.939Z,98619.59
2023-04-27T06:04:44.782Z,98624.25
2023-04-27T06:09:46.668Z,98611.97
2023-04-27T06:14:48.770Z,98618.50
2023-04-27T06:19:51.992Z,98622.28
2023-04-27T06:24:54.303Z,98624.31
2023-04-27T06:29:56.324Z,98622.56
2023-04-27T06:34:58.413Z,98630.19
2023-04-27T06:40:00.519Z,98643.53
2023-04-27T06:45:07.389Z,98642.56
2023-04-27T06:50:09.879Z,98632.88
2023-04-27T06:55:11.995Z,98641.25
2023-04-27T07:00:14.678Z,98641.34
2023-04-27T07:05:16.691Z,98638.56
2023-04-27T07:10:18.779Z,98632.41
2023-04-27T07:15:24.129Z,98642.41
2023-04-27T07:20:27.155Z,98641.50
2023-04-27T07:25:29.140Z,98641.72
2023-04-27T07:30:31.260Z,98646.91
2023-04-27T07:35:33.776Z,98644.69
2023-04-27T07:40:36.526Z,98648.03
2023-04-27T07:45:40.133Z,98650.69
2023-04-27T07:50:42.353Z,98656.34
2023-04-27T07:55:44.765Z,98655.50
2023-04-27T08:00:47.533Z,98647.06
2023-04-27T08:05:49.728Z,98659.38
2023-04-27T08:10:52.008Z,98664.94
2023-04-27T08:15:58.560Z,98660.22
2023-04-27T08:21:00.487Z,98668.56
2023-04-27T08:26:03.621Z,98662.97
2023-04-27T08:31:05.802Z,98653.50
2023-04-27T08:36:08.010Z,98658.47
2023-04-27T08:41:20.934Z,98662.84
2023-04-27T08:46:27.309Z,98667.59
2023-04-27T08:51:29.949Z,98654.31
2023-04-27T08:56:32.083Z,98650.09
2023-04-27T09:01:34.252Z,98652.69
2023-04-27T09:06:36.432Z,98659.25
2023-04-27T09:11:39.814Z,98661.47
2023-04-27T09:16:43.171Z,98652.53
2023-04-27T09:21:48.348Z,98650.44
2023-04-27T09:26:50.556Z,98647.53
2023-04-27T09:31:52.736Z,98657.41
2023-04-27T09:36:54.753Z,98646.47
2023-04-27T09:41:57.116Z,98640.00
2023-04-27T09:47:00.979Z,98636.19
2023-04-27T09:52:02.987Z,98632.97
2023-04-27T09:57:36.313Z,98645.22
2023-04-27T10:03:02.665Z,98630.25
2023-04-27T10:08:06.438Z,98627.50
2023-04-27T10:13:08.309Z,98620.06
2023-04-27T10:18:11.709Z,98633.53
2023-04-27T10:23:26.246Z,98618.28
2023-04-27T10:28:39.332Z,98633.56
2023-04-27T10:33:44.508Z,98640.88
2023-04-27T10:38:46.975Z,98636.31
2023-04-27T10:43:49.128Z,98642.69
2023-04-27T10:48:51.772Z,98634.53
2023-04-27T10:53:54.023Z,98629.50
2023-04-27T10:58:56.355Z,98630.13
2023-04-27T11:04:00.174Z,98626.72
2023-04-27T11:09:02.266Z,98629.69
2023-04-27T11:14:04.296Z,98625.50
2023-04-27T11:19:07.058Z,98623.91
2023-04-27T11:24:10.986Z,98618.91
2023-04-27T11:29:14.431Z,98627.19
2023-04-27T11:34:22.739Z,98624.78
2023-04-27T11:39:28.207Z,98629.31
2023-04-27T11:44:30.207Z,98628.19
2023-04-27T11:49:32.221Z,98625.56
2023-04-27T11:54:34.082Z,98642.50
2023-04-27T11:59:36.246Z,98641.50
2023-04-27T12:04:38.501Z,98634.34
2023-04-27T12:09:40.894Z,98636.31
2023-04-27T12:14:42.797Z,98641.66
2023-04-27T12:19:44.854Z,98631.09
2023-04-27T12:24:46.803Z,98638.22
2023-04-27T12:29:48.826Z,98649.97
2023-04-27T12:34:50.982Z,98645.25
2023-04-27T12:39:52.899Z,98637.94
2023-04-27T12:44:54.934Z,98635.00
2023-04-27T12:49:56.895Z,98645.09
2023-04-27T12:54:59.489Z,98634.19
2023-04-27T13:00:02.076Z,98639.84
2023-04-27T13:05:04.882Z,98643.59
2023-04-27T13:10:11.534Z,98635.91
2023-04-27T13:15:13.484Z,98631.34
2023-04-27T13:20:15.680Z,98630.41
2023-04-27T13:25:17.801Z,98629.41
2023-04-27T13:30:19.952Z,98635.44
2023-04-27T13:35:22.036Z,98633.81
2023-04-27T13:40:24.064Z,98621.97
2023-04-27T13:45:26.185Z,98614.78
2023-04-27T13:50:28.358Z,98622.28
2023-04-27T13:55:30.824Z,98610.22
2023-04-27T14:00:34.756Z,98602.06
2023-04-27T14:05:36.918Z,98603.03
2023-04-27T14:10:39.306Z,98607.41
2023-04-27T14:15:42.238Z,98602.97
2023-04-27T14:20:44.834Z,98593.50
2023-04-27T14:25:47.155Z,98594.66
2023-04-27T14:30:49.115Z,98596.44
2023-04-27T14:35:51.364Z,98596.41
2023-04-27T14:40:53.339Z,98591.34
2023-04-27T14:46:02.068Z,98591.81
2023-04-27T14:51:15.359Z,98598.97
2023-04-27T14:56:17.900Z,98597.00
2023-04-27T15:01:20.373Z,98590.81
2023-04-27T15:06:22.492Z,98597.00
2023-04-27T15:11:24.403Z,98603.16
2023-04-27T15:16:26.476Z,98596.41
2023-04-27T15:21:28.495Z,98605.22
2023-04-27T15:26:30.614Z,98607.03
2023-04-27T15:31:32.580Z,98599.41
2023-04-27T15:36:34.616Z,98599.22
2023-04-27T15:41:36.769Z,98595.16
2023-04-27T15:46:38.750Z,98598.28
2023-04-27T15:51:41.023Z,98594.22
2023-04-27T15:56:43.184Z,98584.31
2023-04-27T16:01:45.157Z,98587.13
2023-04-27T16:06:47.082Z,98581.47
2023-04-27T16:11:49.083Z,98570.56
2023-04-27T16:16:51.605Z,98567.16
2023-04-27T16:21:54.001Z,98559.03
2023-04-27T16:26:56.135Z,98560.34
2023-04-27T16:31:58.217Z,98557.91
2023-04-27T16:37:00.365Z,98558.09
2023-04-27T16:42:02.718Z,98558.25
2023-04-27T16:47:04.605Z,98559.09
2023-04-27T16:52:06.470Z,98558.78
2023-04-27T16:57:08.469Z,98562.09
2023-04-27T17:02:23.865Z,98571.56
2023-04-27T17:07:32.866Z,98576.47
2023-04-27T17:12:38.520Z,98572.91
2023-04-27T17:17:41.461Z,98578.09
2023-04-27T17:22:43.546Z,98578.94
2023-04-27T17:27:45.716Z,98579.91
2023-04-27T17:32:47.698Z,98583.31
2023-04-27T17:37:49.705Z,98584.91
2023-04-27T17:42:51.693Z,98586.38
2023-04-27T17:47:53.623Z,98579.38
2023-04-27T17:52:55.823Z,98596.75
2023-04-27T17:58:00.820Z,98597.53
2023-04-27T18:03:03.074Z,98593.31
2023-04-27T18:08:05.405Z,98593.94
2023-04-27T18:13:07.373Z,98601.88
2023-04-27T18:18:10.543Z,98602.66
2023-04-27T18:23:12.492Z,98607.16
2023-04-27T18:28:14.469Z,98602.09
2023-04-27T18:33:18.021Z,98614.38
2023-04-27T18:38:19.872Z,98614.66
2023-04-27T18:43:21.766Z,98621.59
2023-04-27T18:48:23.788Z,98638.28
2023-04-27T18:53:26.964Z,98635.84
2023-04-27T18:58:29.110Z,98641.84
2023-04-27T19:03:31.209Z,98649.28
2023-04-27T19:08:33.225Z,98660.72
2023-04-27T19:13:35.110Z,98659.06
2023-04-27T19:18:37.083Z,98659.97
2023-04-27T19:23:39.078Z,98660.84
2023-04-27T19:28:41.385Z,98667.44
2023-04-27T19:38:48.217Z,98654.84
2023-04-27T19:43:50.086Z,98651.88
2023-04-27T19:48:53.354Z,98641.16
2023-04-27T19:53:55.325Z,98637.88
2023-04-27T19:58:57.294Z,98634.25
2023-04-27T20:03:59.435Z,98631.16
2023-04-27T20:09:02.237Z,98626.72
2023-04-27T20:14:04.586Z,98629.75
2023-04-27T20:19:06.613Z,98633.75
2023-04-27T20:24:08.566Z,98641.94
2023-04-27T20:29:10.621Z,98644.16
2023-04-27T20:34:12.837Z,98633.56
2023-04-27T20:39:15.264Z,98638.38
2023-04-27T20:44:18.498Z,98639.63
2023-04-27T20:49:31.941Z,98640.72
2023-04-27T20:54:37.184Z,98626.28
2023-04-27T20:59:39.422Z,98628.88
2023-04-27T21:04:41.459Z,98630.13
2023-04-27T21:09:43.354Z,98626.34
2023-04-27T21:14:45.458Z,98630.34
2023-04-27T21:19:47.383Z,98612.50
2023-04-27T21:24:50.359Z,98606.94
2023-04-27T21:29:52.488Z,98602.19
2023-04-27T21:34:54.518Z,98610.09
2023-04-27T21:39:56.696Z,98597.59
2023-04-27T21:44:58.754Z,98598.03
2023-04-27T21:50:00.609Z,98594.09
2023-04-27T21:55:03.171Z,98599.84
2023-04-27T22:00:14.015Z,98590.88
2023-04-27T22:05:22.240Z,98588.72
2023-04-27T22:10:24.206Z,98596.09
2023-04-27T22:15:26.477Z,98585.34
2023-04-27T22:20:28.389Z,98592.44
2023-04-27T22:25:30.688Z,98592.03
2023-04-27T22:30:32.671Z,98589.88
2023-04-27T22:35:36.503Z,98593.72
2023-04-27T22:40:38.436Z,98589.63
2023-04-27T22:45:40.535Z,98591.53
2023-04-27T22:50:42.459Z,98597.66
2023-04-27T22:55:44.376Z,98593.03
2023-04-27T23:00:46.453Z,98588.94
2023-04-27T23:05:48.470Z,98583.25
2023-04-27T23:10:55.096Z,98592.22
2023-04-27T23:15:57.264Z,98572.78
2023-04-27T23:20:59.170Z,98579.06
2023-04-27T23:26:01.026Z,98569.81
2023-04-27T23:31:04.159Z,98562.31
2023-04-27T23:36:06.753Z,98557.28
2023-04-27T23:41:08.784Z,98551.31
2023-04-27T23:46:11.029Z,98551.59
2023-04-27T23:51:13.069Z,98545.88
2023-04-27T23:56:19.300Z,98533.25
